HAE weather

Hannibal Regional Airport
Hannibal, Missouri, United States

Public forecast

Using degrees Fahrenheit for public forecast. Weather courtesy of forecast.io.

METAR (pilot weather report)

Retrieved 2019/09/23 03:35 UTC (10 minutes ago):

KHAE 230335Z AUTO 10SM -RA SCT009 BKN021 OVC075 22/20 A2994 RMK AO2 P0001

TAF (pilot weather forecast)

Forecast is more than 12 hours old.

Closest forecast is Quincy Regional Baldwin Field, 17.4 nm (32.3 km) NE. Retrieved 2019/09/22 00:24 UTC (1 day ago):

TAF KUIN 222321Z 2300/2324 23012G18KT P6SM VCSH OVC016 FM230400 30011G17KT P6SM OVC020 FM230700 30007KT P6SM SCT025 FM231500 30009KT P6SM FEW035